Time;durP1;ratioP1;P1;durP2;ratioP2;P2;SDS_P1;SDS_P2;PMS_P1;PMS_P2;Temp;Humidity;BMP_temperature;BMP_pressure;BME280_temperature;BME280_humidity;BME280_pressure;Samples;Min_cycle;Max_cycle;Signal;HPM_P1;HPM_P2
2023/04/02 00:00:14;;;;;;;3.25;1.30;;;;;;;2.27;71.17;102076.25;5057111;28;20033;-68
2023/04/02 00:02:47;;;;;;;3.83;1.40;;;;;;;2.26;71.75;102082.53;5038419;28;20116;-68
2023/04/02 00:05:18;;;;;;;4.03;1.52;;;;;;;2.25;71.35;102078.19;5038699;28;20028;-67
2023/04/02 00:07:47;;;;;;;4.32;1.20;;;;;;;2.11;71.21;102068.56;5038984;28;20032;-67
2023/04/02 00:10:31;;;;;;;2.83;1.30;;;;;;;2.24;71.27;102088.91;5058361;28;20055;-67
2023/04/02 00:13:00;;;;;;;3.75;1.38;;;;;;;2.28;71.66;102096.50;5036716;28;20033;-67
2023/04/02 00:15:26;;;;;;;2.47;1.13;;;;;;;2.27;71.18;102094.00;5054469;28;20024;-67
2023/04/02 00:17:52;;;;;;;4.13;1.30;;;;;;;2.27;71.55;102097.47;5037672;28;20033;-67
2023/04/02 00:20:19;;;;;;;4.53;1.40;;;;;;;2.25;71.38;102102.09;5056354;28;20554;-67
2023/04/02 00:22:45;;;;;;;4.10;1.58;;;;;;;2.21;72.12;102111.22;5038641;28;20032;-67
2023/04/02 00:25:12;;;;;;;2.05;1.20;;;;;;;2.18;72.39;102108.78;5038127;28;20132;-67
2023/04/02 00:27:38;;;;;;;2.63;1.20;;;;;;;2.08;72.55;102108.59;5021853;28;20055;-67
2023/04/02 00:30:05;;;;;;;4.65;1.27;;;;;;;2.13;72.28;102112.75;5038151;28;20372;-67
2023/04/02 00:32:33;;;;;;;3.35;1.58;;;;;;;1.85;72.93;102091.72;5037553;28;20037;-67
2023/04/02 00:34:59;;;;;;;2.92;1.33;;;;;;;2.01;72.82;102125.09;5056626;28;20257;-67
2023/04/02 00:37:28;;;;;;;2.35;1.10;;;;;;;2.03;72.77;102131.16;5035057;28;20090;-68
2023/04/02 00:40:00;;;;;;;3.97;1.60;;;;;;;2.02;72.64;102127.66;5037222;28;20120;-67
2023/04/02 00:42:30;;;;;;;3.15;1.48;;;;;;;1.98;73.01;102128.81;5056824;28;20351;-68
2023/04/02 00:44:57;;;;;;;4.53;1.40;;;;;;;1.96;72.89;102140.53;5067139;28;20072;-67
2023/04/02 00:47:43;;;;;;;4.38;1.52;;;;;;;1.98;73.64;102138.59;5056603;28;20035;-67
2023/04/02 00:50:13;;;;;;;3.08;1.45;;;;;;;1.94;72.97;102145.94;5056033;28;20089;-68
2023/04/02 00:52:41;;;;;;;3.15;1.52;;;;;;;1.96;73.83;102148.50;5057076;28;20047;-67
2023/04/02 00:55:20;;;;;;;4.53;1.70;;;;;;;1.86;73.75;102137.69;5057165;28;20508;-67
2023/04/02 00:57:48;;;;;;;3.92;1.15;;;;;;;1.93;73.70;102151.34;5056721;28;20029;-67
2023/04/02 01:00:14;;;;;;;2.88;1.42;;;;;;;1.92;73.50;102158.47;5039288;28;20431;-68
2023/04/02 01:02:40;;;;;;;2.85;1.35;;;;;;;1.93;73.29;102157.50;5056718;28;20032;-67
2023/04/02 01:05:15;;;;;;;2.78;1.40;;;;;;;1.92;73.48;102154.94;5056858;28;20025;-67
2023/04/02 01:08:02;;;;;;;5.97;1.83;;;;;;;1.93;74.10;102172.59;5057133;28;20036;-67
2023/04/02 01:10:48;;;;;;;3.13;1.50;;;;;;;1.90;73.87;102175.47;5058150;28;20088;-68
2023/04/02 01:13:39;;;;;;;3.58;1.58;;;;;;;1.87;74.41;102172.06;5042756;28;20440;-68
2023/04/02 01:16:24;;;;;;;5.43;1.40;;;;;;;1.91;74.09;102174.50;5043008;28;20032;-67
2023/04/02 01:19:12;;;;;;;2.85;1.48;;;;;;;1.82;73.96;102166.25;5060813;28;20025;-68
2023/04/02 01:22:07;;;;;;;3.15;1.42;;;;;;;1.77;74.07;102170.19;5041719;28;20124;-67
2023/04/02 01:24:36;;;;;;;3.40;1.25;;;;;;;1.68;74.41;102166.34;5060371;28;20080;-67
2023/04/02 01:27:11;;;;;;;5.88;1.42;;;;;;;1.78;74.30;102178.00;5060319;28;20041;-67
2023/04/02 01:29:44;;;;;;;4.00;1.70;;;;;;;1.70;74.51;102174.22;5060833;28;20445;-67
2023/04/02 01:32:16;;;;;;;3.92;1.65;;;;;;;1.75;74.57;102191.50;5060511;28;20396;-67
2023/04/02 01:34:44;;;;;;;3.08;1.70;;;;;;;1.72;74.69;102191.72;5060490;28;20060;-67
2023/04/02 01:37:28;;;;;;;3.00;1.52;;;;;;;1.75;74.26;102180.88;5041879;28;20029;-68
2023/04/02 01:40:34;;;;;;;5.93;1.75;;;;;;;1.92;74.25;102197.41;5060594;28;20605;-67
2023/04/02 01:43:27;;;;;;;4.22;1.70;;;;;;;1.76;74.16;102185.25;5030302;28;20052;-67
2023/04/02 01:45:52;;;;;;;4.40;1.50;;;;;;;1.92;73.85;102205.38;5042057;28;20071;-67
2023/04/02 01:48:23;;;;;;;4.63;1.70;;;;;;;1.93;74.25;102204.44;5057845;28;20432;-68
2023/04/02 01:50:51;;;;;;;5.65;1.50;;;;;;;1.97;73.80;102212.06;5057779;28;20473;-67
2023/04/02 01:53:19;;;;;;;2.05;1.30;;;;;;;1.93;74.01;102218.56;5039975;28;20125;-67
2023/04/02 01:55:54;;;;;;;4.18;1.58;;;;;;;2.00;74.68;102221.63;5057919;28;20028;-67
2023/04/02 01:58:26;;;;;;;3.97;1.58;;;;;;;2.01;74.35;102216.19;5040658;28;20029;-67
2023/04/02 02:00:58;;;;;;;6.28;1.55;;;;;;;2.06;74.03;102229.16;5056560;28;20396;-67
2023/04/02 02:03:24;;;;;;;3.65;1.55;;;;;;;2.00;74.19;102213.66;5055325;28;20027;-67
2023/04/02 02:05:51;;;;;;;3.65;1.90;;;;;;;1.94;73.89;102206.13;5040206;28;20092;-67
2023/04/02 02:08:42;;;;;;;2.35;1.42;;;;;;;2.05;73.90;102224.78;5058393;28;20108;-67
2023/04/02 02:11:14;;;;;;;3.65;1.38;;;;;;;2.05;73.94;102230.97;5059181;28;20104;-67
2023/04/02 02:13:53;;;;;;;2.50;1.52;;;;;;;2.01;74.31;102236.59;5041380;28;20450;-68
2023/04/02 02:16:19;;;;;;;4.88;1.48;;;;;;;1.94;74.03;102249.44;5060374;28;20459;-67
2023/04/02 02:18:50;;;;;;;5.35;1.67;;;;;;;1.85;74.08;102237.69;5060560;28;20092;-67
2023/04/02 02:21:44;;;;;;;4.22;1.65;;;;;;;1.90;74.73;102250.63;5060500;28;20241;-67
2023/04/02 02:24:22;;;;;;;3.35;1.50;;;;;;;1.81;74.65;102241.50;5043209;28;20025;-67
2023/04/02 02:27:05;;;;;;;3.65;1.70;;;;;;;1.88;74.50;102257.84;5061823;28;20052;-67
2023/04/02 02:29:35;;;;;;;3.03;1.17;;;;;;;1.82;74.06;102243.22;5060993;28;20025;-68
2023/04/02 02:32:03;;;;;;;4.35;1.52;;;;;;;1.88;74.06;102264.00;5061327;28;20032;-67
2023/04/02 02:34:36;;;;;;;6.45;1.52;;;;;;;1.86;74.03;102260.63;5042997;28;20094;-67
2023/04/02 02:37:10;;;;;;;2.35;1.25;;;;;;;1.88;74.43;102265.81;5042368;28;20021;-67
2023/04/02 02:39:43;;;;;;;2.70;1.25;;;;;;;1.87;74.25;102270.25;5060764;28;20025;-67
2023/04/02 02:42:18;;;;;;;4.78;1.58;;;;;;;1.85;74.25;102268.66;5060903;28;20413;-67
2023/04/02 02:44:48;;;;;;;4.63;1.73;;;;;;;1.85;73.95;102274.84;5042934;28;20025;-67
2023/04/02 02:47:18;;;;;;;5.00;1.73;;;;;;;1.83;74.41;102279.41;5039888;28;20021;-67
2023/04/02 02:49:48;;;;;;;2.42;1.40;;;;;;;1.76;74.46;102280.78;5054708;28;20044;-67
2023/04/02 02:52:24;;;;;;;4.35;1.75;;;;;;;1.72;74.39;102284.59;5058999;28;20028;-67
2023/04/02 02:54:57;;;;;;;3.72;1.50;;;;;;;1.66;74.76;102277.06;5059268;28;20136;-67
2023/04/02 02:57:27;;;;;;;3.03;1.30;;;;;;;1.65;74.61;102286.81;5056477;28;20032;-67
2023/04/02 02:59:57;;;;;;;4.43;1.50;;;;;;;1.60;74.34;102280.13;5053770;28;20057;-67
2023/04/02 03:02:24;;;;;;;5.15;1.35;;;;;;;1.64;74.72;102289.56;5058439;28;20047;-67
2023/04/02 03:04:52;;;;;;;2.45;1.20;;;;;;;1.49;75.05;102287.94;5039886;28;20029;-67
2023/04/02 03:07:20;;;;;;;2.83;1.45;;;;;;;1.57;74.60;102301.56;5057569;28;20097;-67
2023/04/02 03:10:11;;;;;;;3.38;1.70;;;;;;;1.44;75.07;102303.34;5040094;28;20013;-67
2023/04/02 03:13:25;;;;;;;4.40;1.30;;;;;;;1.51;75.38;102302.81;5039657;28;20039;-67
2023/04/02 03:16:11;;;;;;;3.47;1.30;;;;;;;1.47;75.92;102311.09;5053577;28;20037;-67
2023/04/02 03:18:58;;;;;;;2.53;1.05;;;;;;;1.58;74.85;102305.91;5044312;28;20387;-67
2023/04/02 03:21:33;;;;;;;4.57;1.30;;;;;;;1.55;74.80;102308.75;5048691;28;20476;-66
2023/04/02 03:24:16;;;;;;;2.78;1.20;;;;;;;1.59;75.04;102313.78;5060288;28;20052;-67
2023/04/02 03:26:51;;;;;;;2.47;1.08;;;;;;;1.55;75.04;102298.16;5060781;28;20053;-67
2023/04/02 03:29:31;;;;;;;3.00;1.30;;;;;;;1.63;75.18;102320.56;5061751;28;20044;-67
2023/04/02 03:32:04;;;;;;;3.17;1.15;;;;;;;1.43;74.81;102301.66;5042357;28;20465;-67
2023/04/02 03:34:39;;;;;;;3.85;1.45;;;;;;;1.54;74.48;102315.03;5062303;28;20024;-67
2023/04/02 03:37:07;;;;;;;;;;;;;;;1.62;75.33;102336.56;5062962;28;20033;-67
2023/04/02 03:39:37;;;;;;;2.40;1.20;;;;;;;1.59;74.88;102342.09;5058732;28;20373;-67
2023/04/02 03:42:13;;;;;;;2.72;1.30;;;;;;;1.53;74.54;102342.53;5039320;28;20618;-67
2023/04/02 03:44:58;;;;;;;3.15;1.20;;;;;;;1.51;74.74;102355.03;5055960;28;20059;-67
2023/04/02 03:47:31;;;;;;;4.50;1.30;;;;;;;1.43;74.54;102354.69;5037491;28;20021;-66
2023/04/02 03:50:04;;;;;;;2.53;1.23;;;;;;;1.32;75.27;102353.56;5036608;28;20028;-67
2023/04/02 03:52:30;;;;;;;2.70;1.10;;;;;;;1.30;75.23;102355.50;5038997;28;20051;-67
2023/04/02 03:54:59;;;;;;;2.13;1.00;;;;;;;1.25;75.24;102360.25;5056178;28;20021;-67
2023/04/02 03:57:42;;;;;;;2.42;1.13;;;;;;;1.03;76.32;102367.91;5033271;28;20021;-67
2023/04/02 04:00:12;;;;;;;3.83;1.58;;;;;;;1.06;76.42;102370.34;5036626;28;20100;-67
2023/04/02 04:02:53;;;;;;;3.47;1.20;;;;;;;1.12;76.43;102375.25;5038377;28;20079;-67
2023/04/02 04:05:29;;;;;;;3.55;1.33;;;;;;;1.11;76.04;102379.69;5038565;28;20423;-67
2023/04/02 04:08:01;;;;;;;2.58;1.27;;;;;;;1.03;76.29;102368.75;5038022;28;20452;-67
2023/04/02 04:10:28;;;;;;;4.35;1.10;;;;;;;1.12;76.08;102380.53;5056189;28;20032;-67
2023/04/02 04:13:00;;;;;;;2.55;1.20;;;;;;;0.95;76.11;102365.72;5037918;28;20505;-67
2023/04/02 04:15:41;;;;;;;2.38;1.20;;;;;;;1.04;76.39;102391.66;5035623;28;20032;-67
2023/04/02 04:18:33;;;;;;;2.55;1.05;;;;;;;1.05;76.17;102387.19;5056269;28;20115;-67
2023/04/02 04:21:02;;;;;;;2.35;0.98;;;;;;;1.07;76.17;102395.91;5038803;28;20032;-67
2023/04/02 04:23:35;;;;;;;9.52;1.30;;;;;;;1.06;75.98;102405.66;5056284;28;20029;-67
2023/04/02 04:26:08;;;;;;;2.25;1.05;;;;;;;1.07;75.90;102411.81;5038080;28;20468;-67
2023/04/02 04:28:57;;;;;;;4.78;1.30;;;;;;;1.01;75.90;102410.41;5055881;28;20078;-67
2023/04/02 04:31:32;;;;;;;2.88;0.98;;;;;;;0.98;76.44;102417.69;5038105;28;20028;-67
2023/04/02 04:34:04;;;;;;;3.53;1.23;;;;;;;0.98;76.44;102428.31;5055856;28;20020;-67
2023/04/02 04:36:36;;;;;;;3.10;1.10;;;;;;;0.96;76.57;102423.13;5037835;28;20070;-67
2023/04/02 04:39:13;;;;;;;2.90;1.20;;;;;;;1.02;76.43;102432.44;5055757;28;20022;-67
2023/04/02 04:41:41;;;;;;;2.67;1.13;;;;;;;1.01;76.27;102431.59;5055518;28;20024;-67
2023/04/02 04:44:44;;;;;;;4.15;1.20;;;;;;;1.06;76.64;102441.91;5037492;28;20123;-67
2023/04/02 04:47:09;;;;;;;2.35;1.02;;;;;;;1.04;76.01;102447.31;4992214;28;20048;-67
2023/04/02 04:50:14;;;;;;;3.28;1.30;;;;;;;1.03;76.30;102439.47;5041908;28;20021;-67
2023/04/02 04:52:41;;;;;;;5.13;1.40;;;;;;;1.32;76.04;102438.44;4997068;28;20450;-67
2023/04/02 04:55:29;;;;;;;2.13;1.10;;;;;;;2.33;75.22;102449.47;5046801;28;20045;-67
2023/04/02 04:57:59;;;;;;;3.58;1.30;;;;;;;3.01;73.25;102448.25;5059186;28;20032;-66
2023/04/02 05:00:36;;;;;;;2.88;1.30;;;;;;;3.56;71.80;102456.72;5040973;28;20102;-68
2023/04/02 05:03:12;;;;;;;3.60;1.20;;;;;;;3.90;70.41;102457.72;5058741;28;20337;-67
2023/04/02 05:05:39;;;;;;;3.40;1.33;;;;;;;4.52;68.78;102457.41;5041592;28;20052;-67
2023/04/02 05:08:33;;;;;;;2.47;1.05;;;;;;;5.05;67.50;102457.66;5059190;28;20100;-67
2023/04/02 05:11:13;;;;;;;3.83;1.20;;;;;;;5.54;64.94;102468.88;5039395;28;20564;-67
2023/04/02 05:13:48;;;;;;;3.90;1.10;;;;;;;6.00;63.45;102470.47;5040856;28;20044;-67
2023/04/02 05:16:32;;;;;;;2.55;1.00;;;;;;;6.36;62.42;102469.19;5059489;28;20025;-67
2023/04/02 05:19:06;;;;;;;2.28;1.00;;;;;;;6.80;60.98;102475.19;5041666;28;20040;-66
2023/04/02 05:21:43;;;;;;;2.40;1.10;;;;;;;7.06;60.23;102480.97;5059177;28;20100;-67
2023/04/02 05:24:36;;;;;;;3.47;1.20;;;;;;;7.34;58.80;102491.88;5041940;28;20028;-67
2023/04/02 05:27:18;;;;;;;4.18;1.00;;;;;;;7.66;57.20;102483.66;5059289;28;20048;-67
2023/04/02 05:29:51;;;;;;;4.38;1.65;;;;;;;7.95;56.03;102497.09;5038864;28;20479;-67
2023/04/02 05:32:21;;;;;;;2.88;0.93;;;;;;;8.23;54.77;102493.53;5059352;28;20021;-68
2023/04/02 05:34:52;;;;;;;3.33;1.30;;;;;;;7.56;55.34;102498.88;5040985;28;20028;-67
2023/04/02 05:37:20;;;;;;;3.50;1.17;;;;;;;6.01;58.94;102506.88;5058938;28;20112;-68
2023/04/02 05:39:51;;;;;;;3.17;1.00;;;;;;;5.08;62.70;102501.94;5041211;28;20162;-67
2023/04/02 05:42:22;;;;;;;2.67;1.23;;;;;;;4.74;64.24;102515.25;5039984;28;20029;-66
2023/04/02 05:44:59;;;;;;;2.55;0.80;;;;;;;4.53;65.21;102516.91;5055820;28;20035;-68
2023/04/02 05:47:28;;;;;;;2.60;0.85;;;;;;;4.47;66.09;102531.56;5040461;28;20115;-68
2023/04/02 05:50:03;;;;;;;2.40;1.00;;;;;;;4.41;66.06;102532.03;5060907;28;20056;-66
2023/04/02 05:52:36;;;;;;;2.75;1.00;;;;;;;4.41;66.62;102540.88;5059204;28;20037;-67
2023/04/02 05:55:04;;;;;;;3.33;1.10;;;;;;;4.50;66.56;102539.31;5059204;28;20039;-67
2023/04/02 05:57:39;;;;;;;3.20;1.10;;;;;;;4.46;66.89;102543.19;5040224;28;20028;-67
2023/04/02 06:00:13;;;;;;;4.13;1.00;;;;;;;4.22;66.95;102552.06;5041251;28;20043;-68
2023/04/02 06:02:50;;;;;;;3.78;1.20;;;;;;;4.39;67.29;102552.59;5061427;28;20071;-67
2023/04/02 06:05:22;;;;;;;2.72;1.08;;;;;;;4.30;67.09;102553.28;5041740;28;20035;-66
2023/04/02 06:07:54;;;;;;;5.88;0.85;;;;;;;3.97;67.92;102563.69;5059494;28;20094;-67
2023/04/02 06:10:27;;;;;;;1.95;0.70;;;;;;;4.02;68.19;102557.19;5040452;28;20112;-67
2023/04/02 06:13:02;;;;;;;1.60;0.68;;;;;;;3.95;69.04;102564.78;5042389;28;20098;-67
2023/04/02 06:15:29;;;;;;;2.22;1.05;;;;;;;3.79;69.87;102572.19;5039871;28;20123;-67
2023/04/02 06:18:12;;;;;;;2.95;0.80;;;;;;;3.81;68.48;102572.91;5040115;28;20041;-66
2023/04/02 06:20:37;;;;;;;1.08;0.50;;;;;;;3.84;68.10;102578.00;5039960;28;20024;-68
2023/04/02 06:23:11;;;;;;;1.75;0.80;;;;;;;4.14;67.70;102583.75;5023471;28;20413;-67
2023/04/02 06:25:57;;;;;;;1.98;0.70;;;;;;;4.16;66.02;102584.47;5039529;28;20521;-65
2023/04/02 06:28:34;;;;;;;3.50;0.70;;;;;;;3.98;66.80;102585.84;5039935;28;20029;-66
2023/04/02 06:31:09;;;;;;;2.30;0.70;;;;;;;4.04;66.46;102574.75;5040545;28;20025;-66
2023/04/02 06:33:35;;;;;;;1.40;0.65;;;;;;;4.18;65.99;102593.22;5040801;28;20519;-65
2023/04/02 06:36:02;;;;;;;1.70;0.75;;;;;;;3.92;65.89;102592.47;5040161;28;20474;-65
2023/04/02 06:38:31;;;;;;;2.45;0.65;;;;;;;4.23;65.87;102592.88;5057701;28;20111;-66
2023/04/02 06:41:07;;;;;;;3.05;0.68;;;;;;;4.55;64.75;102605.63;5057572;28;20051;-65
2023/04/02 06:43:47;;;;;;;2.10;0.70;;;;;;;4.63;61.63;102614.72;5039765;28;20021;-65
2023/04/02 06:46:20;;;;;;;3.53;0.60;;;;;;;4.28;62.46;102582.72;5039979;28;20064;-66
2023/04/02 06:48:49;;;;;;;2.53;0.88;;;;;;;4.56;63.45;102617.97;5056791;28;20025;-66
2023/04/02 06:51:19;;;;;;;5.40;0.80;;;;;;;4.54;62.96;102620.78;5020655;28;20115;-65
2023/04/02 06:53:50;;;;;;;1.33;0.52;;;;;;;4.58;62.33;102622.22;5056808;28;20582;-65
2023/04/02 06:56:35;;;;;;;2.80;0.65;;;;;;;4.66;59.34;102622.50;5026835;28;20163;-66
2023/04/02 06:59:03;;;;;;;1.92;0.60;;;;;;;4.59;60.09;102597.25;5069546;28;20432;-66
2023/04/02 07:01:34;;;;;;;1.02;0.45;;;;;;;4.82;59.87;102629.34;5069131;28;20041;-66
2023/04/02 07:03:59;;;;;;;1.13;0.50;;;;;;;4.70;57.73;102625.78;5069903;28;20129;-66
2023/04/02 07:06:25;;;;;;;1.60;0.50;;;;;;;4.84;58.27;102598.09;5061301;28;20159;-66
2023/04/02 07:08:51;;;;;;;1.90;0.70;;;;;;;5.30;57.16;102639.88;5026017;28;20021;-66
2023/04/02 07:11:20;;;;;;;0.90;0.50;;;;;;;5.76;57.33;102637.09;5040175;28;20056;-66
2023/04/02 07:13:47;;;;;;;1.40;0.63;;;;;;;5.80;56.99;102635.88;5057498;28;20036;-65
2023/04/02 07:16:19;;;;;;;3.13;0.50;;;;;;;5.59;54.38;102648.25;5056182;28;20040;-66
2023/04/02 07:18:47;;;;;;;2.70;0.77;;;;;;;5.81;53.30;102645.59;5055819;28;20033;-66
2023/04/02 07:21:12;;;;;;;0.70;0.30;;;;;;;5.81;51.73;102642.91;5039304;28;20080;-66
2023/04/02 07:23:38;;;;;;;3.03;0.55;;;;;;;5.85;51.73;102641.69;5006071;28;20063;-66
2023/04/02 07:26:05;;;;;;;2.33;0.50;;;;;;;5.79;50.63;102660.03;5056901;28;20526;-66
2023/04/02 07:28:31;;;;;;;1.67;0.50;;;;;;;5.86;49.67;102667.47;5006639;28;20025;-66
2023/04/02 07:30:56;;;;;;;1.27;0.40;;;;;;;6.11;49.44;102655.66;5022897;28;20063;-66
2023/04/02 07:33:25;;;;;;;1.25;0.47;;;;;;;5.88;47.52;102665.50;5039439;28;20032;-67
2023/04/02 07:35:52;;;;;;;1.38;0.50;;;;;;;5.86;46.77;102661.22;5039404;28;20487;-66
2023/04/02 07:38:17;;;;;;;1.52;0.50;;;;;;;5.96;47.60;102654.25;5039338;28;20036;-66
2023/04/02 07:40:43;;;;;;;1.13;0.47;;;;;;;6.37;47.30;102668.72;5041308;28;20033;-66
2023/04/02 07:43:09;;;;;;;1.30;0.45;;;;;;;6.54;45.99;102673.53;5056750;28;20039;-65
2023/04/02 07:45:34;;;;;;;1.02;0.40;;;;;;;6.22;45.16;102678.00;5056971;28;20033;-66
2023/04/02 07:48:08;;;;;;;3.03;0.50;;;;;;;6.44;45.01;102677.09;5056830;28;20017;-66
2023/04/02 07:50:33;;;;;;;1.95;0.50;;;;;;;6.78;44.46;102678.66;5056930;28;20143;-67
2023/04/02 07:52:59;;;;;;;2.47;0.50;;;;;;;6.71;44.14;102677.47;5056404;28;20052;-66
2023/04/02 07:55:24;;;;;;;0.73;0.40;;;;;;;6.43;40.46;102680.75;5038544;28;20090;-66
2023/04/02 07:57:53;;;;;;;1.38;0.47;;;;;;;6.93;43.40;102689.06;5022510;28;20173;-66
2023/04/02 08:00:20;;;;;;;1.30;0.40;;;;;;;6.57;42.57;102691.16;5056379;28;20028;-66
2023/04/02 08:02:46;;;;;;;1.15;0.35;;;;;;;6.82;42.45;102690.81;5038815;28;20029;-66
2023/04/02 08:05:12;;;;;;;3.67;0.40;;;;;;;6.91;41.57;102697.22;5056692;28;20551;-66
2023/04/02 08:07:38;;;;;;;3.65;0.43;;;;;;;7.00;41.81;102699.13;5022417;28;20028;-66
2023/04/02 08:10:04;;;;;;;2.15;0.63;;;;;;;7.14;41.41;102711.34;5039396;28;20059;-66
2023/04/02 08:12:30;;;;;;;3.33;0.50;;;;;;;7.41;42.16;102704.63;5039209;28;20064;-65
2023/04/02 08:14:56;;;;;;;2.67;0.70;;;;;;;7.52;41.43;102715.28;5039610;28;20048;-67
2023/04/02 08:17:21;;;;;;;1.15;0.47;;;;;;;7.78;41.41;102710.31;5038973;28;20093;-66
2023/04/02 08:19:46;;;;;;;0.65;0.30;;;;;;;8.13;41.31;102714.41;5022384;28;20460;-67
2023/04/02 08:22:12;;;;;;;5.95;0.70;;;;;;;7.46;40.46;102689.84;5056797;28;20087;-66
2023/04/02 08:24:38;;;;;;;2.35;0.40;;;;;;;7.56;40.82;102721.22;5059599;28;20104;-66
2023/04/02 08:27:03;;;;;;;1.33;0.40;;;;;;;7.31;40.86;102717.94;5037043;28;20064;-66
2023/04/02 08:29:31;;;;;;;0.82;0.40;;;;;;;7.68;40.86;102723.69;5037496;28;20026;-66
2023/04/02 08:32:00;;;;;;;1.48;0.40;;;;;;;8.05;40.37;102731.19;5036101;28;20067;-66
2023/04/02 08:34:27;;;;;;;3.08;0.40;;;;;;;8.16;39.78;102732.91;5036186;28;20072;-66
2023/04/02 08:36:57;;;;;;;1.58;0.43;;;;;;;8.38;40.43;102724.69;5036133;28;20022;-66
2023/04/02 08:39:25;;;;;;;3.08;0.60;;;;;;;8.22;39.91;102719.81;5037586;28;20475;-66
2023/04/02 08:42:16;;;;;;;1.33;0.40;;;;;;;8.31;40.11;102741.41;5037553;28;20052;-66
2023/04/02 08:45:05;;;;;;;1.58;0.55;;;;;;;7.73;39.89;102740.19;5037305;28;20017;-66
2023/04/02 08:47:36;;;;;;;1.42;0.50;;;;;;;8.04;40.00;102753.59;5036018;28;20022;-67
2023/04/02 08:50:26;;;;;;;1.02;0.47;;;;;;;8.44;39.33;102750.09;5037753;28;20443;-66
2023/04/02 08:52:52;;;;;;;2.28;0.60;;;;;;;8.51;40.20;102737.84;5037989;28;20423;-66
2023/04/02 08:55:31;;;;;;;2.35;0.38;;;;;;;8.57;40.00;102757.88;5019654;28;20090;-66
2023/04/02 08:58:07;;;;;;;2.45;0.65;;;;;;;8.67;39.61;102751.53;5038035;28;20093;-66
2023/04/02 09:00:40;;;;;;;3.80;0.60;;;;;;;8.92;39.69;102750.19;5037821;28;20064;-66
2023/04/02 09:03:24;;;;;;;1.48;0.40;;;;;;;9.04;39.75;102760.75;5037391;28;20029;-66
2023/04/02 09:05:51;;;;;;;1.47;0.43;;;;;;;8.93;39.94;102769.81;5036911;28;20049;-66
2023/04/02 09:08:18;;;;;;;2.78;0.50;;;;;;;8.92;40.13;102770.81;5036167;28;20025;-67
2023/04/02 09:10:59;;;;;;;1.95;0.68;;;;;;;8.88;38.11;102753.28;5036694;28;20076;-66
2023/04/02 09:13:27;;;;;;;1.55;0.60;;;;;;;8.92;38.65;102770.81;5036038;28;20018;-66
2023/04/02 09:16:00;;;;;;;3.90;0.60;;;;;;;8.96;38.18;102777.59;5034116;28;20068;-66
2023/04/02 09:18:29;;;;;;;1.58;0.47;;;;;;;8.88;38.06;102770.25;5036288;28;20025;-66
2023/04/02 09:20:54;;;;;;;2.35;0.80;;;;;;;9.20;38.14;102779.84;5036567;28;20108;-66
2023/04/02 09:23:23;;;;;;;1.45;0.57;;;;;;;9.17;37.28;102769.38;5034181;28;20436;-66
2023/04/02 09:25:51;;;;;;;1.33;0.30;;;;;;;9.41;37.59;102779.72;5045693;28;20538;-66
2023/04/02 09:28:19;;;;;;;1.60;0.60;;;;;;;9.19;36.82;102786.22;5037747;28;20025;-66
2023/04/02 09:31:09;;;;;;;1.80;0.55;;;;;;;9.26;35.78;102798.09;5038321;28;20412;-67
2023/04/02 09:33:49;;;;;;;1.08;0.40;;;;;;;8.64;32.50;102788.56;5041049;28;20142;-66
2023/04/02 09:36:37;;;;;;;1.05;0.40;;;;;;;8.56;33.02;102796.44;5041370;28;20503;-66
2023/04/02 09:39:15;;;;;;;1.45;0.40;;;;;;;8.76;32.64;102798.19;5041991;28;20033;-67
2023/04/02 09:41:41;;;;;;;1.55;0.40;;;;;;;8.45;32.63;102792.91;5059983;28;20017;-67
2023/04/02 09:44:17;;;;;;;1.55;0.30;;;;;;;8.59;31.43;102806.91;5041560;28;20024;-66
2023/04/02 09:47:02;;;;;;;1.83;0.20;;;;;;;8.68;31.68;102801.56;5059358;28;20024;-66
2023/04/02 09:49:35;;;;;;;0.63;0.30;;;;;;;8.98;32.59;102804.31;5059637;28;20210;-66
2023/04/02 09:52:21;;;;;;;1.30;0.30;;;;;;;9.07;31.78;102812.38;5059305;28;20114;-66
2023/04/02 09:55:04;;;;;;;1.45;0.30;;;;;;;8.95;31.15;102810.81;5030106;28;20037;-66
2023/04/02 09:57:32;;;;;;;2.78;0.90;;;;;;;9.13;32.50;102821.69;5040403;28;20239;-66
2023/04/02 10:00:21;;;;;;;1.05;0.30;;;;;;;9.50;31.44;102819.16;5025930;28;20033;-67
2023/04/02 10:03:24;;;;;;;0.50;0.30;;;;;;;9.32;32.26;102818.19;5041571;28;20025;-67
2023/04/02 10:06:05;;;;;;;0.85;0.30;;;;;;;8.87;30.72;102808.81;5057635;28;20092;-67
2023/04/02 10:08:31;;;;;;;0.93;0.25;;;;;;;9.16;32.69;102826.78;5041779;28;20044;-67
2023/04/02 10:11:00;;;;;;;1.95;0.38;;;;;;;9.29;32.35;102808.56;5060394;28;20039;-66
2023/04/02 10:13:44;;;;;;;1.45;0.43;;;;;;;9.50;33.09;102839.81;5059370;28;20025;-67
2023/04/02 10:16:20;;;;;;;1.42;0.40;;;;;;;9.54;32.79;102827.81;5042306;28;20047;-67
2023/04/02 10:18:54;;;;;;;1.73;0.30;;;;;;;9.90;33.37;102834.25;5056044;28;20036;-67
2023/04/02 10:21:30;;;;;;;1.10;0.40;;;;;;;9.55;32.37;102827.66;5042641;28;20024;-67
2023/04/02 10:23:58;;;;;;;2.45;0.50;;;;;;;9.89;32.75;102832.53;5060591;28;20025;-66
2023/04/02 10:26:37;;;;;;;1.90;0.40;;;;;;;9.76;32.16;102824.78;5060433;28;20412;-67
2023/04/02 10:29:14;;;;;;;1.35;0.30;;;;;;;10.05;32.88;102829.25;5060072;28;20025;-67
2023/04/02 10:32:05;;;;;;;0.85;0.40;;;;;;;10.11;32.77;102828.66;5042165;28;20025;-67
2023/04/02 10:34:42;;;;;;;0.98;0.50;;;;;;;10.22;32.90;102849.16;5059997;28;20526;-67
2023/04/02 10:37:26;;;;;;;0.63;0.32;;;;;;;10.21;32.77;102850.16;5042778;28;20064;-67
2023/04/02 10:40:04;;;;;;;1.20;0.40;;;;;;;9.98;32.49;102841.59;5061585;28;20397;-67
2023/04/02 10:42:47;;;;;;;2.38;0.47;;;;;;;10.11;32.59;102858.25;5073420;28;20085;-67
2023/04/02 10:45:37;;;;;;;1.42;0.60;;;;;;;10.13;32.60;102856.25;5066526;28;20025;-68
2023/04/02 10:48:27;;;;;;;1.40;0.50;;;;;;;10.16;32.58;102849.75;5061341;28;20084;-68
2023/04/02 10:51:27;;;;;;;1.15;0.30;;;;;;;10.42;31.20;102858.88;5042353;28;20030;-67
2023/04/02 10:54:01;;;;;;;1.15;0.40;;;;;;;10.09;33.21;102868.31;5060836;28;20025;-67
2023/04/02 10:56:28;;;;;;;1.45;0.40;;;;;;;10.07;32.23;102870.31;5042112;28;20036;-68
2023/04/02 10:58:59;;;;;;;0.90;0.40;;;;;;;10.19;32.59;102862.91;5025837;28;20071;-68
2023/04/02 11:01:28;;;;;;;1.88;0.30;;;;;;;10.14;31.82;102859.81;5039702;28;20048;-68
2023/04/02 11:03:59;;;;;;;1.05;0.50;;;;;;;10.04;32.56;102879.50;5041017;28;20029;-65
2023/04/02 11:06:35;;;;;;;1.02;0.38;;;;;;;10.02;33.33;102841.13;5057134;28;20108;-66
2023/04/02 11:09:06;;;;;;;1.48;0.30;;;;;;;10.08;33.30;102878.22;5041031;28;20399;-67
2023/04/02 11:11:38;;;;;;;0.95;0.40;;;;;;;9.95;32.92;102880.38;5059572;28;20025;-68
2023/04/02 11:14:10;;;;;;;2.30;0.20;;;;;;;9.97;33.49;102870.31;5059360;28;20154;-68
2023/04/02 11:16:36;;;;;;;1.48;0.30;;;;;;;10.19;32.91;102857.53;5058833;28;20017;-68
2023/04/02 11:19:14;;;;;;;2.05;0.30;;;;;;;10.18;32.78;102862.06;5024199;28;20051;-66
2023/04/02 11:21:56;;;;;;;1.92;0.30;;;;;;;10.41;32.24;102877.88;5058515;28;20032;-67
2023/04/02 11:24:32;;;;;;;2.33;0.50;;;;;;;10.47;32.62;102888.06;5041131;28;20112;-68
2023/04/02 11:27:03;;;;;;;0.60;0.20;;;;;;;10.50;32.28;102887.78;5041147;28;20076;-66
2023/04/02 11:29:31;;;;;;;0.77;0.20;;;;;;;10.73;32.35;102889.09;5039212;28;20029;-66
2023/04/02 11:32:28;;;;;;;2.65;0.40;;;;;;;10.02;31.58;102891.41;5039099;28;20247;-66
2023/04/02 11:34:53;;;;;;;2.25;0.47;;;;;;;9.95;32.71;102893.81;5057729;28;20138;-67
2023/04/02 11:37:35;;;;;;;3.30;0.60;;;;;;;10.35;31.31;102890.91;5039715;28;20511;-67
2023/04/02 11:40:26;;;;;;;0.85;0.30;;;;;;;10.63;33.07;102900.88;5058479;28;20035;-66
2023/04/02 11:42:52;;;;;;;1.25;0.40;;;;;;;10.13;32.49;102885.84;5057504;28;20111;-66
2023/04/02 11:45:23;;;;;;;1.52;0.40;;;;;;;10.18;33.79;102905.09;5040189;28;20047;-68
2023/04/02 11:47:58;;;;;;;2.05;0.30;;;;;;;10.11;32.50;102893.22;5039762;28;20024;-66
2023/04/02 11:50:33;;;;;;;1.08;0.22;;;;;;;10.11;32.36;102925.50;5056542;28;20083;-66
2023/04/02 11:53:18;;;;;;;1.48;0.32;;;;;;;10.04;33.29;102892.13;5056573;28;20029;-67
2023/04/02 11:55:45;;;;;;;0.90;0.30;;;;;;;10.15;34.25;102915.31;5037936;28;20020;-66
2023/04/02 11:58:32;;;;;;;0.98;0.38;;;;;;;10.22;33.17;102916.41;5038916;28;20040;-67
2023/04/02 12:01:37;;;;;;;0.95;0.38;;;;;;;10.37;31.81;102909.63;5041913;28;20071;-67
2023/04/02 12:04:37;;;;;;;1.25;0.30;;;;;;;10.32;31.78;102912.75;5046527;28;20087;-67